Time;durP1;ratioP1;P1;durP2;ratioP2;P2;SDS_P1;SDS_P2;PMS_P1;PMS_P2;Temp;Humidity;BMP_temperature;BMP_pressure;BME280_temperature;BME280_humidity;BME280_pressure;Samples;Min_cycle;Max_cycle;Signal;HPM_P1;HPM_P2
2021/12/01 00:01:32;;;;;;;0.75;0.40;;;;;;;4.00;83.49;96832.28;5058814;28;20220;-53
2021/12/01 00:03:59;;;;;;;1.10;0.77;;;;;;;3.97;83.80;96835.41;5045343;28;20420;-48
2021/12/01 00:06:25;;;;;;;0.43;0.30;;;;;;;3.92;84.04;96822.69;5053591;28;20474;-48
2021/12/01 00:08:52;;;;;;;1.73;0.25;;;;;;;4.07;83.58;96827.69;5051497;28;20098;-51
2021/12/01 00:11:18;;;;;;;0.25;0.25;;;;;;;4.11;83.45;96826.19;5053014;28;20052;-51
2021/12/01 00:13:45;;;;;;;0.30;0.30;;;;;;;3.97;84.34;96825.53;5051358;28;20068;-53
2021/12/01 00:16:12;;;;;;;0.52;0.30;;;;;;;3.83;84.99;96814.13;5044847;28;20091;-53
2021/12/01 00:18:38;;;;;;;0.20;0.20;;;;;;;3.88;84.75;96816.94;5047048;28;20064;-50
2021/12/01 00:21:05;;;;;;;0.75;0.30;;;;;;;3.82;85.08;96811.66;5043767;28;20087;-52
2021/12/01 00:23:31;;;;;;;0.52;0.32;;;;;;;3.70;85.78;96807.06;5047578;28;20040;-53
2021/12/01 00:25:59;;;;;;;0.30;0.30;;;;;;;3.60;85.58;96802.22;5059167;28;20490;-51
2021/12/01 00:28:26;;;;;;;0.63;0.30;;;;;;;3.52;85.67;96802.50;5047995;28;20051;-50
2021/12/01 00:30:53;;;;;;;0.47;0.40;;;;;;;3.28;85.49;96809.50;5048705;28;20044;-52
2021/12/01 00:33:22;;;;;;;0.82;0.40;;;;;;;3.18;85.28;96812.66;5048815;28;20048;-51
2021/12/01 00:35:51;;;;;;;0.70;0.50;;;;;;;3.11;85.43;96802.03;5067310;28;20580;-49
2021/12/01 00:38:18;;;;;;;0.77;0.50;;;;;;;3.09;85.06;96804.09;5057660;28;20099;-51
2021/12/01 00:40:45;;;;;;;2.10;0.50;;;;;;;3.10;85.61;96795.03;5048872;28;20045;-48
2021/12/01 00:43:24;;;;;;;0.55;0.50;;;;;;;3.08;85.71;96795.25;5064652;28;20037;-52
2021/12/01 00:45:57;;;;;;;1.83;0.47;;;;;;;3.13;85.18;96799.94;5056073;28;20051;-48
2021/12/01 00:48:25;;;;;;;1.42;0.68;;;;;;;3.14;85.10;96790.06;5050576;28;20044;-47
2021/12/01 00:50:53;;;;;;;1.35;0.60;;;;;;;3.17;85.08;96785.09;5052575;28;20036;-47
2021/12/01 00:53:19;;;;;;;1.20;0.40;;;;;;;3.25;84.65;96784.81;5067696;28;20060;-46
2021/12/01 00:55:46;;;;;;;0.90;0.52;;;;;;;3.19;85.14;96776.84;5064652;28;20052;-47
2021/12/01 00:58:14;;;;;;;0.40;0.40;;;;;;;3.24;84.96;96775.16;5048153;28;20757;-47
2021/12/01 01:00:42;;;;;;;0.55;0.30;;;;;;;3.27;84.14;96781.13;5050374;28;20067;-50
2021/12/01 01:03:09;;;;;;;1.25;0.60;;;;;;;3.20;84.20;96773.94;5049777;28;20045;-47
2021/12/01 01:05:36;;;;;;;0.57;0.40;;;;;;;3.12;84.39;96772.38;5051105;28;20124;-47
2021/12/01 01:08:04;;;;;;;0.70;0.50;;;;;;;3.11;84.30;96777.94;5055110;28;20059;-46
2021/12/01 01:10:45;;;;;;;0.57;0.47;;;;;;;3.06;84.61;96778.59;5047675;28;20091;-46
2021/12/01 01:18:53;;;;;;;0.52;0.30;;;;;;;2.99;83.85;96775.97;5050858;28;20045;-49
2021/12/01 01:21:21;;;;;;;0.43;0.40;;;;;;;2.99;84.14;96765.28;5035837;28;20041;-46
2021/12/01 01:23:48;;;;;;;1.50;0.60;;;;;;;2.96;84.16;96756.88;5053843;28;20044;-51
2021/12/01 01:26:17;;;;;;;0.77;0.43;;;;;;;2.92;84.36;96751.16;5063379;28;20037;-49
2021/12/01 01:28:44;;;;;;;1.83;0.73;;;;;;;2.90;84.51;96758.56;5045555;28;20566;-48
2021/12/01 01:31:12;;;;;;;2.17;0.70;;;;;;;2.84;84.49;96762.91;5048477;28;20072;-53
2021/12/01 01:33:38;;;;;;;0.90;0.70;;;;;;;2.80;84.78;96742.19;5035112;28;20040;-52
2021/12/01 01:36:05;;;;;;;0.90;0.60;;;;;;;2.78;85.75;96754.94;5066448;28;20037;-52
2021/12/01 01:38:32;;;;;;;0.55;0.55;;;;;;;2.85;84.77;96761.06;5058072;28;20045;-51
2021/12/01 01:41:01;;;;;;;1.25;0.60;;;;;;;2.86;84.94;96757.34;5044500;28;20048;-48
2021/12/01 01:43:28;;;;;;;1.98;0.60;;;;;;;2.85;84.59;96747.72;5049321;28;20051;-48
2021/12/01 01:45:56;;;;;;;0.80;0.60;;;;;;;2.80;84.96;96747.53;5049560;28;20044;-45
2021/12/01 01:48:30;;;;;;;1.00;0.50;;;;;;;2.80;85.10;96747.53;5060163;28;20124;-48
2021/12/01 01:51:04;;;;;;;2.50;0.90;;;;;;;2.78;85.11;96738.91;5061303;28;20041;-47
2021/12/01 01:53:34;;;;;;;0.57;0.50;;;;;;;2.83;84.64;96736.41;5046721;28;20033;-50
2021/12/01 01:56:05;;;;;;;1.42;0.70;;;;;;;2.86;84.96;96730.63;5051718;28;20045;-49
2021/12/01 01:58:32;;;;;;;6.55;1.23;;;;;;;2.86;84.66;96738.63;5049718;28;20043;-47
2021/12/01 02:01:09;;;;;;;3.28;0.73;;;;;;;2.84;84.45;96736.19;5065451;28;20033;-46
2021/12/01 02:03:44;;;;;;;1.40;0.70;;;;;;;2.86;85.05;96727.94;5066392;28;20063;-48
2021/12/01 02:06:13;;;;;;;1.45;0.80;;;;;;;2.88;84.46;96719.72;5047384;28;20052;-49
2021/12/01 02:08:51;;;;;;;1.48;0.75;;;;;;;2.98;84.10;96723.53;5039041;28;20045;-49
2021/12/01 02:11:19;;;;;;;0.90;0.50;;;;;;;2.98;83.81;96718.19;5042232;28;20045;-47
2021/12/01 02:13:47;;;;;;;1.52;0.70;;;;;;;2.94;84.16;96722.31;5052288;28;20056;-46
2021/12/01 02:16:15;;;;;;;1.05;0.63;;;;;;;2.93;83.75;96701.97;5066577;28;20067;-48
2021/12/01 02:18:42;;;;;;;1.73;0.75;;;;;;;2.99;83.54;96705.63;5046335;28;20120;-46
2021/12/01 02:21:11;;;;;;;1.30;0.70;;;;;;;3.01;83.38;96700.03;5044436;28;20099;-46
2021/12/01 02:23:44;;;;;;;0.90;0.60;;;;;;;3.09;82.97;96699.75;5060373;28;20044;-47
2021/12/01 02:26:13;;;;;;;3.15;0.80;;;;;;;3.15;82.12;96693.53;5062807;28;20037;-46
2021/12/01 02:28:44;;;;;;;1.35;0.85;;;;;;;3.14;82.80;96693.75;5058781;28;20048;-47
2021/12/01 02:31:12;;;;;;;2.13;1.08;;;;;;;3.19;82.35;96672.50;5044591;28;20075;-47
2021/12/01 02:33:40;;;;;;;1.40;0.80;;;;;;;3.24;82.15;96678.00;5046633;28;20053;-48
2021/12/01 02:36:12;;;;;;;1.00;0.80;;;;;;;3.25;82.44;96674.31;5045407;28;20166;-49
2021/12/01 02:38:41;;;;;;;1.33;0.68;;;;;;;3.33;82.07;96673.19;5026195;28;20103;-47
2021/12/01 02:41:11;;;;;;;1.52;0.70;;;;;;;3.40;81.83;96665.09;5026202;28;20037;-50
2021/12/01 02:43:38;;;;;;;1.20;0.68;;;;;;;3.38;81.98;96663.47;5054666;28;20045;-51
2021/12/01 02:46:05;;;;;;;1.63;0.45;;;;;;;3.37;81.69;96655.66;5046389;28;20049;-48
2021/12/01 02:48:35;;;;;;;0.82;0.50;;;;;;;3.38;81.45;96652.75;5045213;28;20049;-50
2021/12/01 02:51:04;;;;;;;1.80;0.70;;;;;;;3.54;80.88;96652.38;5047119;28;20049;-48
2021/12/01 02:53:31;;;;;;;2.10;0.60;;;;;;;3.60;80.42;96646.09;5046235;28;20060;-48
2021/12/01 02:56:01;;;;;;;1.23;0.70;;;;;;;3.69;80.15;96636.72;5058592;28;20044;-52
2021/12/01 02:58:31;;;;;;;1.75;0.65;;;;;;;3.77;79.81;96639.09;5049421;28;20041;-51
2021/12/01 03:01:02;;;;;;;1.33;0.90;;;;;;;3.77;79.82;96639.09;5057858;28;20052;-51
2021/12/01 03:03:30;;;;;;;0.93;0.50;;;;;;;3.72;79.99;96628.25;5046184;28;20044;-50
2021/12/01 03:05:59;;;;;;;1.38;0.70;;;;;;;3.75;80.06;96622.44;5063980;28;20045;-47
2021/12/01 03:08:28;;;;;;;1.92;0.57;;;;;;;3.69;80.44;96614.50;5045711;28;20045;-48
2021/12/01 03:10:56;;;;;;;0.52;0.35;;;;;;;3.70;80.52;96610.78;5045882;28;20362;-49
2021/12/01 03:13:24;;;;;;;1.58;0.65;;;;;;;3.69;80.33;96598.44;5045415;28;20090;-48
2021/12/01 03:15:50;;;;;;;1.25;0.65;;;;;;;3.77;79.66;96593.56;5044809;28;20049;-52
2021/12/01 03:18:18;;;;;;;1.48;0.50;;;;;;;3.87;79.69;96587.66;5047920;28;20051;-51
2021/12/01 03:20:46;;;;;;;1.27;0.60;;;;;;;3.78;80.45;96581.00;5065728;28;20044;-49
2021/12/01 03:23:13;;;;;;;0.77;0.57;;;;;;;3.77;80.01;96572.13;5064395;28;20527;-50
2021/12/01 03:25:41;;;;;;;2.53;0.88;;;;;;;3.76;80.10;96575.88;5065214;28;20068;-50
2021/12/01 03:28:08;;;;;;;1.17;0.70;;;;;;;3.72;80.84;96577.38;5045070;28;20052;-48
2021/12/01 03:30:37;;;;;;;0.93;0.60;;;;;;;3.69;80.72;96582.38;5025657;28;20053;-51
2021/12/01 03:33:10;;;;;;;1.17;0.80;;;;;;;3.77;79.93;96574.81;5039750;28;20586;-52
2021/12/01 03:35:39;;;;;;;0.73;0.57;;;;;;;3.73;80.70;96583.56;5057378;28;20040;-49
2021/12/01 03:38:07;;;;;;;0.90;0.57;;;;;;;3.70;80.55;96575.97;5064904;28;20098;-53
2021/12/01 03:40:34;;;;;;;1.63;1.00;;;;;;;3.70;80.54;96573.28;5048827;28;20044;-50
2021/12/01 03:43:01;;;;;;;2.00;0.95;;;;;;;3.66;80.49;96580.97;5042935;28;20048;-49
2021/12/01 03:45:28;;;;;;;1.08;0.82;;;;;;;3.71;80.45;96569.56;5045660;28;20048;-49
2021/12/01 03:47:55;;;;;;;1.55;0.88;;;;;;;3.61;80.97;96570.94;5046355;28;20047;-53
2021/12/01 03:50:22;;;;;;;1.05;0.70;;;;;;;3.66;80.76;96556.88;5047503;28;20111;-49
2021/12/01 03:52:50;;;;;;;1.65;0.90;;;;;;;3.66;80.44;96559.56;5060935;28;20059;-50
2021/12/01 03:55:16;;;;;;;1.00;0.70;;;;;;;3.67;80.39;96563.84;5046938;28;20044;-50
2021/12/01 03:57:43;;;;;;;2.28;1.05;;;;;;;3.68;80.41;96564.69;5054704;28;20131;-48
2021/12/01 04:00:13;;;;;;;1.15;0.70;;;;;;;3.69;80.33;96556.41;5060624;28;20044;-50
2021/12/01 04:02:40;;;;;;;0.75;0.60;;;;;;;3.69;80.59;96550.25;5053024;28;20060;-53
2021/12/01 04:05:07;;;;;;;1.38;0.75;;;;;;;3.71;80.61;96548.13;5048032;28;20051;-52
2021/12/01 04:07:34;;;;;;;3.72;1.10;;;;;;;3.76;80.13;96542.94;5047798;28;20055;-54
2021/12/01 04:10:04;;;;;;;2.15;0.85;;;;;;;3.85;79.69;96538.88;5049165;28;20090;-52
2021/12/01 04:12:31;;;;;;;1.17;0.77;;;;;;;3.84;79.84;96526.50;5048997;28;20110;-51
2021/12/01 04:14:57;;;;;;;1.58;0.60;;;;;;;3.76;80.07;96529.56;5058639;28;20566;-51
2021/12/01 04:17:24;;;;;;;1.63;0.70;;;;;;;3.73;80.18;96525.44;5054467;28;20491;-51
2021/12/01 04:19:50;;;;;;;1.90;0.80;;;;;;;3.71;80.44;96526.72;5056106;28;20052;-52
2021/12/01 04:22:17;;;;;;;1.15;0.70;;;;;;;3.74;80.12;96518.25;5068771;28;20044;-49
2021/12/01 04:24:43;;;;;;;1.00;0.60;;;;;;;3.75;79.89;96506.47;5053486;28;20470;-49
2021/12/01 04:27:10;;;;;;;1.00;0.60;;;;;;;3.77;80.26;96497.16;5049560;28;20052;-53
2021/12/01 04:29:37;;;;;;;2.80;0.70;;;;;;;3.87;79.90;96487.78;5050680;28;20036;-50
2021/12/01 04:32:04;;;;;;;1.20;0.63;;;;;;;3.96;79.21;96480.19;5048420;28;20037;-51
2021/12/01 04:34:31;;;;;;;1.92;0.70;;;;;;;3.97;79.29;96471.94;5051542;28;20048;-52
2021/12/01 04:36:58;;;;;;;1.45;0.50;;;;;;;3.96;79.75;96469.47;5067825;28;20044;-50
2021/12/01 04:39:24;;;;;;;1.33;0.80;;;;;;;4.03;79.01;96462.16;5057593;28;20059;-54
2021/12/01 04:41:52;;;;;;;0.75;0.60;;;;;;;4.18;78.39;96464.38;5048456;28;20053;-55
2021/12/01 04:44:21;;;;;;;1.35;0.60;;;;;;;4.07;79.09;96460.66;5044032;28;20623;-52
2021/12/01 04:46:52;;;;;;;0.98;0.50;;;;;;;4.06;79.46;96445.63;5042779;28;20661;-51
2021/12/01 04:49:21;;;;;;;1.02;0.45;;;;;;;4.06;79.03;96437.59;5054973;28;20053;-51
2021/12/01 04:51:50;;;;;;;1.33;0.60;;;;;;;4.02;79.65;96426.50;5042868;28;20044;-52
2021/12/01 04:54:17;;;;;;;0.63;0.40;;;;;;;4.06;79.35;96421.53;5064558;28;20048;-53
2021/12/01 04:56:46;;;;;;;1.45;0.60;;;;;;;4.09;79.14;96422.91;5067019;28;20052;-53
2021/12/01 04:59:14;;;;;;;1.05;0.60;;;;;;;4.19;78.59;96412.41;5049906;28;20044;-53
2021/12/01 05:01:41;;;;;;;0.65;0.40;;;;;;;4.19;78.88;96400.88;5050756;28;20045;-51
2021/12/01 05:04:09;;;;;;;1.30;0.55;;;;;;;4.21;78.84;96402.28;5053844;28;20102;-47
2021/12/01 05:06:37;;;;;;;0.50;0.30;;;;;;;4.24;78.92;96404.47;5047113;28;20277;-47
2021/12/01 05:09:06;;;;;;;1.75;0.60;;;;;;;4.28;78.21;96399.47;5046106;28;20048;-47
2021/12/01 05:11:33;;;;;;;1.55;0.40;;;;;;;4.34;77.67;96395.84;5046211;28;20257;-48
2021/12/01 05:14:10;;;;;;;2.40;0.35;;;;;;;4.38;77.71;96393.50;5051110;28;20048;-47
2021/12/01 05:16:37;;;;;;;0.52;0.45;;;;;;;4.53;77.12;96391.13;5041642;28;20052;-47
2021/12/01 05:19:07;;;;;;;0.32;0.30;;;;;;;4.55;76.93;96390.91;5050557;28;20059;-52
2021/12/01 05:21:35;;;;;;;0.55;0.30;;;;;;;4.57;76.84;96385.31;5052987;28;20041;-52
2021/12/01 05:24:02;;;;;;;0.80;0.40;;;;;;;4.57;77.09;96382.63;5047353;28;20508;-53
2021/12/01 05:26:29;;;;;;;2.17;1.10;;;;;;;4.54;77.41;96381.25;5049295;28;20037;-49
2021/12/01 05:28:56;;;;;;;0.88;0.40;;;;;;;4.57;77.01;96380.75;5062232;28;20037;-52
2021/12/01 05:31:22;;;;;;;2.38;0.80;;;;;;;4.51;77.16;96371.81;5061657;28;20037;-51
2021/12/01 05:33:49;;;;;;;0.70;0.40;;;;;;;4.46;77.25;96369.00;5045174;28;20049;-52
2021/12/01 05:36:16;;;;;;;0.52;0.40;;;;;;;4.47;77.41;96372.50;5049410;28;20496;-53
2021/12/01 05:38:43;;;;;;;1.80;0.40;;;;;;;4.47;77.83;96375.19;5050859;28;20049;-53
2021/12/01 05:41:09;;;;;;;1.00;0.50;;;;;;;4.37;78.10;96370.44;5047357;28;20049;-50
2021/12/01 05:43:36;;;;;;;0.98;0.40;;;;;;;4.39;77.31;96353.06;5047146;28;20041;-53
2021/12/01 05:46:02;;;;;;;0.40;0.38;;;;;;;4.36;77.89;96352.72;5047617;28;20056;-53
2021/12/01 05:48:29;;;;;;;0.47;0.40;;;;;;;4.41;77.78;96342.09;5046731;28;20049;-51
2021/12/01 05:50:56;;;;;;;0.65;0.40;;;;;;;4.41;77.22;96353.66;5065950;28;20538;-50
2021/12/01 05:53:22;;;;;;;1.02;0.60;;;;;;;4.36;78.10;96339.31;5066818;28;20090;-51
2021/12/01 05:55:49;;;;;;;1.08;0.50;;;;;;;4.34;77.86;96336.88;5065117;28;20044;-52
2021/12/01 05:58:15;;;;;;;1.35;0.50;;;;;;;4.34;77.68;96339.56;5066267;28;20044;-51
2021/12/01 06:00:42;;;;;;;0.85;0.52;;;;;;;4.34;78.39;96339.56;5051304;28;20045;-53
2021/12/01 06:03:09;;;;;;;1.90;0.40;;;;;;;4.31;78.00;96320.47;5052279;28;20052;-53
2021/12/01 06:05:36;;;;;;;0.77;0.50;;;;;;;4.34;78.01;96314.63;5047709;28;20041;-52
2021/12/01 06:08:04;;;;;;;0.68;0.47;;;;;;;4.27;78.08;96309.41;5065780;28;20056;-50
2021/12/01 06:10:30;;;;;;;1.02;0.50;;;;;;;4.25;78.09;96319.56;5051189;28;20508;-51
2021/12/01 06:12:58;;;;;;;0.50;0.40;;;;;;;4.24;78.25;96307.22;5056405;28;20052;-50
2021/12/01 06:15:24;;;;;;;1.63;0.47;;;;;;;4.29;77.80;96307.31;5065980;28;20067;-48
2021/12/01 06:17:51;;;;;;;0.60;0.40;;;;;;;4.27;78.10;96302.19;5056194;28;20297;-51
2021/12/01 06:20:18;;;;;;;2.42;0.80;;;;;;;4.36;77.48;96305.31;5046061;28;20056;-47
2021/12/01 06:22:45;;;;;;;0.47;0.40;;;;;;;4.39;77.23;96295.97;5042314;28;20029;-47
2021/12/01 06:25:11;;;;;;;0.80;0.50;;;;;;;4.38;77.71;96299.69;5034905;28;20049;-47
2021/12/01 06:27:38;;;;;;;0.32;0.30;;;;;;;4.33;77.83;96291.56;5040425;28;20041;-48
2021/12/01 06:30:06;;;;;;;0.88;0.38;;;;;;;4.37;77.62;96284.66;5045233;28;20564;-50
2021/12/01 06:32:33;;;;;;;1.30;0.30;;;;;;;4.40;77.53;96281.53;5046164;28;20079;-49
2021/12/01 06:34:59;;;;;;;0.40;0.35;;;;;;;4.44;77.54;96277.31;5043799;28;20419;-49
2021/12/01 06:37:26;;;;;;;1.55;0.50;;;;;;;4.45;76.83;96267.41;5045362;28;20048;-50
2021/12/01 06:39:53;;;;;;;1.35;0.52;;;;;;;4.42;77.16;96274.03;5043467;28;20041;-49
2021/12/01 06:42:20;;;;;;;1.88;0.60;;;;;;;4.43;77.12;96267.66;5044799;28;20036;-50
2021/12/01 06:44:46;;;;;;;1.17;0.40;;;;;;;4.40;77.22;96252.03;5044246;28;20045;-50
2021/12/01 06:47:14;;;;;;;1.55;0.50;;;;;;;4.38;77.01;96254.94;5045056;28;20048;-51
2021/12/01 06:49:45;;;;;;;1.48;0.40;;;;;;;4.39;77.61;96245.84;5045660;28;20451;-52
2021/12/01 06:52:13;;;;;;;0.93;0.60;;;;;;;4.39;77.36;96248.53;5045443;28;20045;-49
2021/12/01 06:54:40;;;;;;;0.30;0.30;;;;;;;4.44;76.90;96242.47;5048597;28;20057;-52
2021/12/01 06:57:07;;;;;;;0.85;0.50;;;;;;;4.48;76.40;96227.53;5045676;28;20041;-52
2021/12/01 06:59:34;;;;;;;1.52;0.50;;;;;;;4.47;76.88;96228.59;5045698;28;20041;-52
2021/12/01 07:02:00;;;;;;;3.60;0.60;;;;;;;4.42;77.31;96229.28;5049794;28;20052;-54
2021/12/01 07:04:27;;;;;;;1.60;0.52;;;;;;;4.39;77.92;96226.28;5045822;28;20049;-51
2021/12/01 07:06:54;;;;;;;1.30;0.40;;;;;;;4.42;77.78;96223.13;5045104;28;20116;-52
2021/12/01 07:09:23;;;;;;;1.83;0.45;;;;;;;4.48;77.39;96208.75;5045450;28;20179;-53
2021/12/01 07:11:50;;;;;;;1.15;0.60;;;;;;;4.45;77.26;96214.59;5043985;28;20044;-49
2021/12/01 07:14:16;;;;;;;2.75;0.77;;;;;;;4.42;77.51;96207.84;5045544;28;20056;-49
2021/12/01 07:16:43;;;;;;;0.65;0.43;;;;;;;4.40;78.05;96201.94;5042119;28;20049;-52
2021/12/01 07:19:10;;;;;;;1.00;0.47;;;;;;;4.43;77.73;96190.72;5043423;28;20132;-49
2021/12/01 07:21:36;;;;;;;1.70;0.55;;;;;;;4.47;77.30;96192.91;5042728;28;20052;-50
2021/12/01 07:24:04;;;;;;;1.30;0.68;;;;;;;4.56;76.81;96188.78;5042514;28;20102;-50
2021/12/01 07:26:30;;;;;;;1.50;0.40;;;;;;;4.61;77.29;96182.69;5043531;28;20045;-47
2021/12/01 07:28:57;;;;;;;1.48;0.40;;;;;;;4.64;76.37;96180.34;5042965;28;20588;-49
2021/12/01 07:31:23;;;;;;;1.55;0.50;;;;;;;4.68;76.63;96172.59;5057247;28;20053;-48
2021/12/01 07:33:50;;;;;;;0.85;0.50;;;;;;;4.79;76.57;96168.25;5057100;28;20036;-50
2021/12/01 07:36:17;;;;;;;2.72;0.70;;;;;;;4.74;76.57;96173.50;5047275;28;20053;-52
2021/12/01 07:38:44;;;;;;;2.00;0.50;;;;;;;4.75;76.95;96159.84;5046864;28;20052;-52
2021/12/01 07:41:10;;;;;;;2.13;0.60;;;;;;;4.77;76.46;96155.06;5040043;28;20049;-54
2021/12/01 07:43:37;;;;;;;2.25;0.77;;;;;;;4.85;76.96;96139.59;5047470;28;20060;-52
2021/12/01 07:46:04;;;;;;;0.90;0.47;;;;;;;4.92;75.92;96140.25;5047018;28;20041;-53
2021/12/01 07:48:32;;;;;;;0.65;0.50;;;;;;;5.02;76.18;96136.91;5046013;28;20045;-53
2021/12/01 07:50:59;;;;;;;0.95;0.57;;;;;;;5.06;75.35;96128.13;5047666;28;20045;-54
2021/12/01 07:53:25;;;;;;;1.20;0.45;;;;;;;5.14;75.30;96126.06;5047229;28;20049;-49
2021/12/01 07:55:52;;;;;;;3.38;0.50;;;;;;;5.10;75.04;96115.03;5047461;28;20543;-51
2021/12/01 07:58:18;;;;;;;2.03;0.60;;;;;;;5.51;75.62;96116.59;5059967;28;20052;-46
2021/12/01 08:00:45;;;;;;;0.47;0.40;;;;;;;6.54;72.37;96107.94;5047758;28;20049;-44
2021/12/01 08:03:12;;;;;;;1.42;0.60;;;;;;;6.53;70.84;96109.03;5049707;28;20051;-46
2021/12/01 08:05:39;;;;;;;3.22;0.60;;;;;;;6.96;70.30;96090.22;5046970;28;20124;-43
2021/12/01 08:08:06;;;;;;;1.50;0.52;;;;;;;7.00;70.11;96088.59;5057486;28;20044;-51
2021/12/01 08:10:33;;;;;;;1.20;0.32;;;;;;;7.50;69.71;96086.44;5046260;28;20045;-48
2021/12/01 08:13:01;;;;;;;1.70;0.50;;;;;;;6.96;68.26;96079.47;5059846;28;20045;-52
2021/12/01 08:15:47;;;;;;;0.43;0.20;;;;;;;6.40;70.17;96075.31;5046344;28;20043;-51
2021/12/01 08:18:15;;;;;;;4.05;0.52;;;;;;;5.86;72.05;96070.53;5043425;28;20053;-48
2021/12/01 08:20:42;;;;;;;1.05;0.70;;;;;;;5.71;73.60;96073.88;5046466;28;20041;-51
2021/12/01 08:23:08;;;;;;;1.17;0.43;;;;;;;5.73;73.46;96062.88;5046317;28;20049;-51
2021/12/01 08:25:35;;;;;;;1.48;0.60;;;;;;;5.71;73.99;96059.63;5045437;28;20055;-51
2021/12/01 08:28:02;;;;;;;2.30;1.25;;;;;;;5.86;74.06;96059.78;5045845;28;20258;-51
2021/12/01 08:30:30;;;;;;;6.82;3.13;;;;;;;5.94;73.26;96058.50;5046310;28;20443;-50
2021/12/01 08:32:57;;;;;;;1.05;0.70;;;;;;;5.95;73.76;96044.03;5051965;28;20549;-49
2021/12/01 08:35:24;;;;;;;0.95;0.40;;;;;;;6.23;73.52;96042.13;5055281;28;20677;-52
2021/12/01 08:37:51;;;;;;;0.43;0.35;;;;;;;6.40;73.32;96022.34;5045485;28;20044;-51
2021/12/01 08:40:18;;;;;;;2.90;1.63;;;;;;;6.19;73.44;96038.31;5045627;28;20049;-49
2021/12/01 08:42:46;;;;;;;2.40;1.02;;;;;;;6.27;73.40;96036.25;5045516;28;20043;-49
2021/12/01 08:45:13;;;;;;;0.80;0.75;;;;;;;6.23;73.27;96023.31;5046001;28;20064;-47
2021/12/01 08:47:40;;;;;;;2.05;1.33;;;;;;;6.28;73.26;96016.34;5045227;28;20049;-47
2021/12/01 08:50:09;;;;;;;1.65;0.80;;;;;;;6.23;73.72;96012.56;5051672;28;20043;-50
2021/12/01 08:52:37;;;;;;;3.15;0.80;;;;;;;6.33;73.81;96009.13;5045953;28;20057;-49
2021/12/01 08:55:04;;;;;;;1.40;0.60;;;;;;;6.51;74.24;96007.09;5056129;28;20052;-50
2021/12/01 08:57:31;;;;;;;1.00;0.52;;;;;;;6.62;73.79;95994.50;5045790;28;20048;-48
2021/12/01 08:59:57;;;;;;;0.52;0.25;;;;;;;6.66;72.96;96005.59;5045393;28;20090;-48
2021/12/01 09:02:24;;;;;;;4.70;2.28;;;;;;;6.70;72.97;96003.97;5046414;28;20063;-47
2021/12/01 09:04:51;;;;;;;1.90;0.80;;;;;;;6.54;73.61;95986.94;5045720;28;20079;-50
2021/12/01 09:07:18;;;;;;;1.13;0.63;;;;;;;6.42;73.95;95985.28;5031705;28;20102;-47
2021/12/01 09:09:46;;;;;;;2.10;0.35;;;;;;;6.59;73.80;95981.59;5046069;28;20049;-49
2021/12/01 09:12:14;;;;;;;1.27;0.65;;;;;;;6.49;73.57;95988.53;5044882;28;20474;-50
2021/12/01 09:14:42;;;;;;;2.95;1.15;;;;;;;6.52;73.53;95981.81;5043212;28;20045;-47
2021/12/01 09:17:10;;;;;;;2.08;0.98;;;;;;;6.42;73.54;95981.75;5036026;28;20053;-46
2021/12/01 09:19:36;;;;;;;0.40;0.30;;;;;;;6.43;73.39;95986.06;5044681;28;20083;-46
2021/12/01 09:22:03;;;;;;;0.73;0.40;;;;;;;6.46;72.71;95981.00;5045733;28;20041;-44
2021/12/01 09:24:29;;;;;;;1.98;0.90;;;;;;;6.46;73.82;95966.72;5044284;28;20044;-50
2021/12/01 09:26:56;;;;;;;2.30;0.95;;;;;;;6.40;73.59;95981.19;5034632;28;20058;-48
2021/12/01 09:29:27;;;;;;;6.03;1.92;;;;;;;6.40;72.93;95965.06;5044764;28;20059;-49
2021/12/01 09:31:58;;;;;;;1.80;0.50;;;;;;;6.45;73.33;95957.84;5045071;28;20052;-49
2021/12/01 09:34:25;;;;;;;;;;;;;;;6.49;73.30;95944.72;5045974;28;20674;-46
2021/12/01 09:36:52;;;;;;;3.38;2.13;;;;;;;6.38;73.41;95946.53;5044072;28;19921;-49
2021/12/01 09:39:19;;;;;;;0.17;0.17;;;;;;;6.46;73.37;95937.16;5045174;28;20111;-46
2021/12/01 09:41:47;;;;;;;1.35;0.50;;;;;;;6.48;73.82;95935.81;5044668;28;20041;-48
2021/12/01 09:44:13;;;;;;;5.80;1.98;;;;;;;6.55;72.70;95927.50;5044513;28;20071;-47
2021/12/01 09:46:40;;;;;;;0.55;0.55;;;;;;;6.46;73.43;95919.16;5039334;28;20041;-46
2021/12/01 09:49:07;;;;;;;0.77;0.45;;;;;;;6.50;73.47;95906.78;5043183;28;20052;-46
2021/12/01 09:51:34;;;;;;;4.30;1.73;;;;;;;6.58;73.38;95907.34;5043785;28;20045;-46
2021/12/01 09:54:02;;;;;;;2.20;1.25;;;;;;;6.58;73.23;95901.97;5045060;28;20037;-46
2021/12/01 09:56:29;;;;;;;1.15;0.50;;;;;;;6.54;72.96;95906.25;5043148;28;20060;-46
2021/12/01 09:58:57;;;;;;;1.15;0.50;;;;;;;6.52;73.38;95898.44;5058416;28;20412;-46
2021/12/01 10:01:27;;;;;;;1.52;0.77;;;;;;;6.54;73.48;95904.41;5042774;28;20102;-49
2021/12/01 10:03:55;;;;;;;2.03;1.02;;;;;;;6.55;73.42;95905.19;5050961;28;20741;-44
2021/12/01 10:06:24;;;;;;;5.63;2.38;;;;;;;6.48;73.42;95906.25;5051300;28;20566;-47
2021/12/01 10:08:50;;;;;;;7.93;3.42;;;;;;;6.48;73.67;95900.03;5032478;28;20110;-46
2021/12/01 10:11:18;;;;;;;0.73;0.40;;;;;;;6.53;73.01;95892.03;5043899;28;20052;-48
2021/12/01 10:13:50;;;;;;;4.30;2.63;;;;;;;6.49;73.22;95889.03;5044471;28;20124;-51
2021/12/01 10:16:17;;;;;;;;;;;;;;;6.59;73.34;95887.44;5044708;28;20695;-47
2021/12/01 10:18:46;;;;;;;1.73;0.80;;;;;;;6.60;73.01;95883.72;5044414;28;19936;-51
2021/12/01 10:21:22;;;;;;;20.90;10.88;;;;;;;6.54;73.67;95869.44;5040677;28;20047;-46
2021/12/01 10:23:50;;;;;;;1.33;0.60;;;;;;;6.74;72.74;95875.94;5044659;28;20036;-50
2021/12/01 10:26:21;;;;;;;5.20;3.78;;;;;;;6.61;73.03;95853.88;5044441;28;20358;-49
2021/12/01 10:28:51;;;;;;;3.38;1.60;;;;;;;6.73;72.75;95855.50;5044506;28;20086;-48
2021/12/01 10:31:38;;;;;;;2.50;1.38;;;;;;;6.79;72.65;95851.78;5043959;28;20044;-48
2021/12/01 10:34:19;;;;;;;1.52;0.80;;;;;;;6.89;72.61;95846.41;5042022;28;20132;-49
2021/12/01 10:36:49;;;;;;;5.05;0.98;;;;;;;6.89;72.93;95850.97;5044971;28;20375;-49
2021/12/01 10:39:17;;;;;;;2.22;1.10;;;;;;;6.87;72.41;95840.50;5045599;28;20074;-48
2021/12/01 10:41:44;;;;;;;0.35;0.25;;;;;;;6.89;72.73;95835.63;5045729;28;20122;-47
2021/12/01 10:44:16;;;;;;;0.80;0.38;;;;;;;6.93;72.35;95835.13;5045824;28;20044;-47
2021/12/01 10:46:52;;;;;;;0.35;0.30;;;;;;;7.01;72.74;95831.91;5045313;28;20114;-47
2021/12/01 10:49:42;;;;;;;0.30;0.22;;;;;;;7.02;72.85;95826.25;5045921;28;20130;-46
2021/12/01 10:52:32;;;;;;;0.77;0.35;;;;;;;6.97;72.86;95830.81;5045225;28;20052;-47
2021/12/01 10:55:19;;;;;;;0.77;0.47;;;;;;;6.93;73.43;95821.66;5045755;28;20431;-50
2021/12/01 10:57:55;;;;;;;0.50;0.22;;;;;;;6.94;73.73;95821.41;5045320;28;20036;-47
2021/12/01 11:00:32;;;;;;;0.57;0.30;;;;;;;6.85;74.63;95810.34;5045509;28;20145;-46
2021/12/01 11:03:08;;;;;;;0.32;0.30;;;;;;;6.86;75.00;95789.63;5047951;28;20072;-49
2021/12/01 11:05:37;;;;;;;0.47;0.28;;;;;;;6.73;75.54;95783.69;5043873;28;20040;-51
2021/12/01 11:08:19;;;;;;;0.70;0.40;;;;;;;6.87;75.15;95773.22;5044875;28;20049;-48
2021/12/01 11:10:49;;;;;;;0.40;0.22;;;;;;;6.82;75.81;95770.50;5045317;28;20126;-49
2021/12/01 11:13:17;;;;;;;0.70;0.40;;;;;;;6.84;75.39;95772.94;5046077;28;20515;-50
2021/12/01 11:15:50;;;;;;;1.75;0.88;;;;;;;6.87;75.22;95765.16;5042593;28;20048;-51
2021/12/01 11:18:41;;;;;;;1.10;0.52;;;;;;;6.81;76.30;95760.03;5044534;28;20134;-51
2021/12/01 11:21:12;;;;;;;2.33;0.50;;;;;;;6.89;76.80;95746.84;5045214;28;20451;-47
2021/12/01 11:23:53;;;;;;;1.45;0.80;;;;;;;6.90;76.58;95756.53;5045081;28;20033;-50
2021/12/01 11:26:22;;;;;;;7.00;3.53;;;;;;;6.94;76.82;95742.53;5041931;28;20067;-49
2021/12/01 11:28:52;;;;;;;3.70;1.75;;;;;;;7.01;76.12;95729.63;5040886;28;20099;-47
2021/12/01 11:31:32;;;;;;;7.95;3.90;;;;;;;7.05;77.23;95730.72;5042172;28;20704;-49
2021/12/01 11:34:09;;;;;;;1.13;0.50;;;;;;;7.11;76.59;95726.94;5037059;28;20033;-47
2021/12/01 11:36:38;;;;;;;4.53;1.80;;;;;;;7.10;76.93;95711.03;5043115;28;20106;-46
2021/12/01 11:39:10;;;;;;;7.53;3.67;;;;;;;7.13;77.60;95703.25;5042698;28;20041;-47
2021/12/01 11:41:43;;;;;;;1.45;0.30;;;;;;;7.43;75.92;95698.06;5029522;28;20037;-51
2021/12/01 11:44:12;;;;;;;5.47;2.95;;;;;;;7.28;77.56;95688.97;5042802;28;20041;-47
2021/12/01 11:46:40;;;;;;;1.02;0.40;;;;;;;7.39;76.76;95688.94;5041635;28;20049;-47
2021/12/01 11:49:13;;;;;;;4.15;1.98;;;;;;;7.23;77.44;95672.00;5043317;28;20049;-45
2021/12/01 11:51:46;;;;;;;1.95;0.30;;;;;;;7.42;76.08;95666.84;5043158;28;20045;-46
2021/12/01 11:54:19;;;;;;;1.20;0.43;;;;;;;7.65;75.87;95664.63;5042486;28;20041;-49